Terminal Aerodrome Forecast
Issued by NWS Sterling, VA

Current Version | Previous Version | Graphics & Text | Print | Product List | Glossary On
Versions: 1 2 3 4 5 6 7 8 9 10 11 12 13 14 15 16 17 18 19 20 21 22
392
FTUS41 KLWX 150537
TAFDCA
TAF
KDCA 150537Z 1506/1606 00000KT 3SM -DZ OVC005
     FM150900 34005KT 4SM BR OVC008
     FM151000 34005KT P6SM OVC050
     FM151200 35006KT P6SM SCT150
     FM160100 VRB03KT P6SM BKN110=

USA.gov is the U.S. government's official web portal to all federal, state and local government web resources and services.